createdAt,value
2018-12-12T00:08:45.198Z,79.32
2018-12-12T00:19:04.306Z,80.38
2018-12-12T00:29:23.420Z,81.20
2018-12-12T00:39:42.894Z,81.58
2018-12-12T00:50:03.692Z,81.44
2018-12-12T01:00:23.018Z,82.80
2018-12-12T01:10:41.855Z,82.86
2018-12-12T01:21:01.190Z,81.97
2018-12-12T01:31:19.257Z,82.63
2018-12-12T01:41:38.251Z,82.29
2018-12-12T01:51:58.607Z,82.02
2018-12-12T02:02:17.278Z,82.97
2018-12-12T02:12:36.240Z,82.67
2018-12-12T02:22:55.644Z,82.65
2018-12-12T02:33:15.313Z,83.69
2018-12-12T02:43:34.164Z,83.63
2018-12-12T02:53:52.712Z,83.57
2018-12-12T03:04:11.269Z,83.52
2018-12-12T03:14:29.767Z,85.51
2018-12-12T03:24:48.865Z,83.93
2018-12-12T03:35:07.818Z,83.96
2018-12-12T03:45:27.042Z,84.95
2018-12-12T03:55:46.114Z,83.58
2018-12-12T04:06:06.101Z,83.01
2018-12-12T04:16:24.633Z,82.43
2018-12-12T04:26:44.735Z,82.46
2018-12-12T04:37:03.360Z,82.94
2018-12-12T04:47:23.703Z,82.49
2018-12-12T04:57:42.156Z,82.77
2018-12-12T05:08:00.828Z,83.40
2018-12-12T05:18:23.707Z,84.50
2018-12-12T05:28:42.680Z,85.50
2018-12-12T05:39:01.966Z,84.74
2018-12-12T05:49:26.347Z,84.19
2018-12-12T05:59:45.492Z,84.33
2018-12-12T06:10:06.907Z,83.17
2018-12-12T06:20:26.470Z,86.24
2018-12-12T06:30:45.273Z,85.65
2018-12-12T06:41:07.300Z,85.03
2018-12-12T06:51:26.959Z,86.83
2018-12-12T07:01:45.901Z,86.25
2018-12-12T07:12:05.580Z,86.08
2018-12-12T07:22:23.778Z,86.27
2018-12-12T07:32:43.227Z,87.23
2018-12-12T07:43:03.013Z,88.62
2018-12-12T07:53:40.459Z,88.17
2018-12-12T08:04:00.088Z,88.58
2018-12-12T08:14:18.570Z,87.56
2018-12-12T08:24:38.066Z,85.88
2018-12-12T08:34:56.769Z,84.93
2018-12-12T08:45:15.720Z,84.34
2018-12-12T08:55:34.719Z,83.51
2018-12-12T09:05:53.587Z,84.26
2018-12-12T09:16:12.574Z,84.95
2018-12-12T09:26:33.627Z,84.59
2018-12-12T09:36:52.419Z,83.61
2018-12-12T09:47:13.155Z,82.55
2018-12-12T09:57:31.746Z,81.62
2018-12-12T10:07:50.739Z,81.38
2018-12-12T10:18:10.524Z,79.92
2018-12-12T10:28:30.601Z,78.72
2018-12-12T10:38:49.851Z,78.09
2018-12-12T10:49:09.020Z,79.84
2018-12-12T10:59:28.267Z,78.87
2018-12-12T11:09:47.457Z,79.36
2018-12-12T11:20:07.846Z,79.94
2018-12-12T11:30:26.580Z,80.56
2018-12-12T11:40:45.170Z,80.25
2018-12-12T11:51:04.888Z,79.66
2018-12-12T12:01:24.238Z,80.58
2018-12-12T12:11:42.799Z,79.97
2018-12-12T12:22:02.225Z,79.86
2018-12-12T12:32:21.710Z,80.30
2018-12-12T12:42:40.044Z,80.68
2018-12-12T12:53:01.046Z,80.29
2018-12-12T13:03:19.859Z,80.28
2018-12-12T13:13:39.679Z,80.38
2018-12-12T13:23:59.972Z,80.63
2018-12-12T13:34:18.179Z,81.77
2018-12-12T13:44:37.494Z,82.33
2018-12-12T13:54:57.610Z,83.11
2018-12-12T14:05:17.321Z,84.29
2018-12-12T14:15:36.431Z,84.24
2018-12-12T14:25:56.212Z,83.86
2018-12-12T14:36:14.628Z,83.98
2018-12-12T14:46:33.349Z,83.16
2018-12-12T14:56:53.519Z,83.56
2018-12-12T15:07:12.929Z,83.85
2018-12-12T15:17:31.819Z,84.00
2018-12-12T15:27:50.927Z,84.06
2018-12-12T15:38:10.539Z,84.68
2018-12-12T15:48:29.161Z,84.94
2018-12-12T15:58:48.747Z,84.98
2018-12-12T16:09:08.407Z,85.24
2018-12-12T16:19:28.100Z,86.52
2018-12-12T16:29:47.796Z,86.39
2018-12-12T16:40:08.587Z,86.41
2018-12-12T16:50:28.061Z,86.58
2018-12-12T17:00:47.571Z,86.73
2018-12-12T17:11:07.007Z,86.67
2018-12-12T17:21:26.448Z,86.70
2018-12-12T17:31:45.910Z,86.97
2018-12-12T17:42:15.496Z,85.59
2018-12-12T17:52:35.632Z,85.82
2018-12-12T18:02:55.401Z,85.14
2018-12-12T18:13:33.588Z,85.30
2018-12-12T18:23:55.454Z,85.07
2018-12-12T18:34:30.796Z,85.64
2018-12-12T18:44:53.970Z,85.59
2018-12-12T18:55:27.407Z,86.42
2018-12-12T19:05:45.969Z,86.26
2018-12-12T19:16:07.377Z,86.44
2018-12-12T19:26:30.362Z,86.24
2018-12-12T19:36:56.601Z,86.38
2018-12-12T19:47:19.520Z,86.46
2018-12-12T19:57:40.508Z,86.61
2018-12-12T20:08:04.327Z,86.86
2018-12-12T20:18:32.347Z,87.14
2018-12-12T20:28:54.367Z,87.37
2018-12-12T20:39:19.536Z,87.16
2018-12-12T20:49:41.962Z,87.08
2018-12-12T21:00:05.060Z,86.89
2018-12-12T21:10:25.881Z,87.04
2018-12-12T21:20:50.443Z,87.18
2018-12-12T21:31:10.980Z,87.20
2018-12-12T21:41:31.859Z,87.11
2018-12-12T21:51:52.082Z,86.82
2018-12-12T22:02:13.196Z,87.87
2018-12-12T22:12:33.443Z,87.84
2018-12-12T22:22:54.940Z,87.72
2018-12-12T22:33:14.231Z,87.20
2018-12-12T22:43:33.682Z,87.13
2018-12-12T22:53:52.677Z,87.04
2018-12-12T23:04:13.193Z,86.44
2018-12-12T23:14:32.833Z,86.33
2018-12-12T23:24:51.495Z,86.16
2018-12-12T23:35:10.716Z,86.14
2018-12-12T23:45:30.306Z,86.08
2018-12-12T23:55:49.587Z,85.86
